sensor_id;sensor_type;location;lat;lon;timestamp;P1;durP1;ratioP1;P2;durP2;ratioP2
68384;SDS011;55336;43.062;25.626;2022-10-16T00:02:06;3.80;;;3.53;;
68384;SDS011;55336;43.062;25.626;2022-10-16T00:06:57;4.33;;;3.93;;
68384;SDS011;55336;43.062;25.626;2022-10-16T00:09:23;4.40;;;4.05;;
68384;SDS011;55336;43.062;25.626;2022-10-16T00:11:49;4.10;;;3.80;;
68384;SDS011;55336;43.062;25.626;2022-10-16T00:14:15;4.50;;;4.20;;
68384;SDS011;55336;43.062;25.626;2022-10-16T00:16:41;4.55;;;4.25;;
68384;SDS011;55336;43.062;25.626;2022-10-16T00:19:07;3.97;;;3.67;;
68384;SDS011;55336;43.062;25.626;2022-10-16T00:21:35;3.78;;;3.58;;
68384;SDS011;55336;43.062;25.626;2022-10-16T00:24:03;3.90;;;3.65;;
68384;SDS011;55336;43.062;25.626;2022-10-16T00:26:32;4.20;;;3.90;;
68384;SDS011;55336;43.062;25.626;2022-10-16T00:28:59;3.65;;;3.42;;
68384;SDS011;55336;43.062;25.626;2022-10-16T00:31:25;3.65;;;3.35;;
68384;SDS011;55336;43.062;25.626;2022-10-16T00:33:52;4.38;;;4.05;;
68384;SDS011;55336;43.062;25.626;2022-10-16T00:36:19;5.03;;;4.63;;
68384;SDS011;55336;43.062;25.626;2022-10-16T00:38:46;4.40;;;4.10;;
68384;SDS011;55336;43.062;25.626;2022-10-16T00:41:15;4.07;;;3.78;;
68384;SDS011;55336;43.062;25.626;2022-10-16T00:43:49;4.68;;;4.28;;
68384;SDS011;55336;43.062;25.626;2022-10-16T00:46:32;4.22;;;3.83;;
68384;SDS011;55336;43.062;25.626;2022-10-16T00:49:02;4.35;;;4.05;;
68384;SDS011;55336;43.062;25.626;2022-10-16T00:51:32;3.85;;;3.58;;
68384;SDS011;55336;43.062;25.626;2022-10-16T00:54:04;7.90;;;4.20;;
68384;SDS011;55336;43.062;25.626;2022-10-16T00:56:35;4.15;;;3.85;;
68384;SDS011;55336;43.062;25.626;2022-10-16T00:59:02;4.03;;;3.70;;
68384;SDS011;55336;43.062;25.626;2022-10-16T01:01:32;4.25;;;3.92;;
68384;SDS011;55336;43.062;25.626;2022-10-16T01:03:58;4.93;;;4.53;;
68384;SDS011;55336;43.062;25.626;2022-10-16T01:14:40;4.30;;;4.00;;
68384;SDS011;55336;43.062;25.626;2022-10-16T01:22:30;5.53;;;5.05;;
68384;SDS011;55336;43.062;25.626;2022-10-16T01:25:05;4.32;;;4.03;;
68384;SDS011;55336;43.062;25.626;2022-10-16T01:27:36;4.03;;;3.72;;
68384;SDS011;55336;43.062;25.626;2022-10-16T01:30:18;4.10;;;3.80;;
68384;SDS011;55336;43.062;25.626;2022-10-16T01:32:50;4.07;;;3.80;;
68384;SDS011;55336;43.062;25.626;2022-10-16T01:35:25;4.35;;;3.95;;
68384;SDS011;55336;43.062;25.626;2022-10-16T01:41:03;4.32;;;4.03;;
68384;SDS011;55336;43.062;25.626;2022-10-16T01:46:28;4.68;;;4.38;;
68384;SDS011;55336;43.062;25.626;2022-10-16T01:48:57;4.53;;;4.18;;
68384;SDS011;55336;43.062;25.626;2022-10-16T01:51:24;4.35;;;4.05;;
68384;SDS011;55336;43.062;25.626;2022-10-16T01:53:54;4.40;;;4.00;;
68384;SDS011;55336;43.062;25.626;2022-10-16T01:56:22;7.07;;;4.15;;
68384;SDS011;55336;43.062;25.626;2022-10-16T01:59:05;4.30;;;4.10;;
68384;SDS011;55336;43.062;25.626;2022-10-16T02:01:35;4.50;;;4.10;;
68384;SDS011;55336;43.062;25.626;2022-10-16T02:04:07;4.47;;;4.18;;
68384;SDS011;55336;43.062;25.626;2022-10-16T02:06:55;4.88;;;4.47;;
68384;SDS011;55336;43.062;25.626;2022-10-16T02:09:21;4.75;;;4.35;;
68384;SDS011;55336;43.062;25.626;2022-10-16T02:11:47;4.25;;;3.92;;
68384;SDS011;55336;43.062;25.626;2022-10-16T02:14:14;4.93;;;4.55;;
68384;SDS011;55336;43.062;25.626;2022-10-16T02:16:42;4.30;;;3.92;;
68384;SDS011;55336;43.062;25.626;2022-10-16T02:19:09;4.47;;;4.07;;
68384;SDS011;55336;43.062;25.626;2022-10-16T02:24:15;4.50;;;4.10;;
68384;SDS011;55336;43.062;25.626;2022-10-16T02:26:48;4.68;;;4.28;;
68384;SDS011;55336;43.062;25.626;2022-10-16T02:29:21;4.80;;;4.40;;
68384;SDS011;55336;43.062;25.626;2022-10-16T02:31:50;4.97;;;4.38;;
68384;SDS011;55336;43.062;25.626;2022-10-16T02:34:20;4.75;;;4.35;;
68384;SDS011;55336;43.062;25.626;2022-10-16T02:36:49;4.10;;;3.80;;
68384;SDS011;55336;43.062;25.626;2022-10-16T02:39:16;4.07;;;3.70;;
68384;SDS011;55336;43.062;25.626;2022-10-16T02:41:44;5.30;;;4.80;;
68384;SDS011;55336;43.062;25.626;2022-10-16T02:44:11;4.60;;;4.28;;
68384;SDS011;55336;43.062;25.626;2022-10-16T02:46:37;4.55;;;4.25;;
68384;SDS011;55336;43.062;25.626;2022-10-16T02:49:03;5.25;;;4.85;;
68384;SDS011;55336;43.062;25.626;2022-10-16T02:51:29;5.00;;;4.60;;
68384;SDS011;55336;43.062;25.626;2022-10-16T02:53:54;5.10;;;4.05;;
68384;SDS011;55336;43.062;25.626;2022-10-16T02:56:20;8.00;;;4.65;;
68384;SDS011;55336;43.062;25.626;2022-10-16T02:58:46;5.00;;;4.50;;
68384;SDS011;55336;43.062;25.626;2022-10-16T03:01:12;4.05;;;3.85;;
68384;SDS011;55336;43.062;25.626;2022-10-16T03:03:39;4.72;;;4.32;;
68384;SDS011;55336;43.062;25.626;2022-10-16T03:06:05;4.95;;;4.65;;
68384;SDS011;55336;43.062;25.626;2022-10-16T03:08:31;4.78;;;4.43;;
68384;SDS011;55336;43.062;25.626;2022-10-16T03:10:57;6.18;;;4.45;;
68384;SDS011;55336;43.062;25.626;2022-10-16T03:13:23;5.00;;;4.60;;
68384;SDS011;55336;43.062;25.626;2022-10-16T03:15:49;4.05;;;3.85;;
68384;SDS011;55336;43.062;25.626;2022-10-16T03:18:15;5.55;;;5.13;;
68384;SDS011;55336;43.062;25.626;2022-10-16T03:20:42;5.80;;;5.15;;
68384;SDS011;55336;43.062;25.626;2022-10-16T03:23:08;4.18;;;3.88;;
68384;SDS011;55336;43.062;25.626;2022-10-16T03:25:34;4.25;;;3.95;;
68384;SDS011;55336;43.062;25.626;2022-10-16T03:28:00;4.88;;;4.47;;
68384;SDS011;55336;43.062;25.626;2022-10-16T03:30:26;4.38;;;4.07;;
68384;SDS011;55336;43.062;25.626;2022-10-16T03:32:52;4.55;;;4.18;;
68384;SDS011;55336;43.062;25.626;2022-10-16T03:35:19;4.85;;;4.45;;
68384;SDS011;55336;43.062;25.626;2022-10-16T03:37:49;4.88;;;4.47;;
68384;SDS011;55336;43.062;25.626;2022-10-16T03:40:15;5.00;;;4.60;;
68384;SDS011;55336;43.062;25.626;2022-10-16T03:42:42;4.90;;;4.50;;
68384;SDS011;55336;43.062;25.626;2022-10-16T03:45:09;4.82;;;4.50;;
68384;SDS011;55336;43.062;25.626;2022-10-16T03:47:36;4.50;;;4.20;;
68384;SDS011;55336;43.062;25.626;2022-10-16T03:50:03;4.90;;;4.50;;
68384;SDS011;55336;43.062;25.626;2022-10-16T03:52:29;5.95;;;5.40;;
68384;SDS011;55336;43.062;25.626;2022-10-16T03:54:57;9.18;;;5.03;;
68384;SDS011;55336;43.062;25.626;2022-10-16T03:57:23;5.90;;;5.03;;
68384;SDS011;55336;43.062;25.626;2022-10-16T03:59:49;6.88;;;4.85;;
68384;SDS011;55336;43.062;25.626;2022-10-16T04:02:15;6.05;;;5.15;;
68384;SDS011;55336;43.062;25.626;2022-10-16T04:04:41;7.82;;;5.03;;
68384;SDS011;55336;43.062;25.626;2022-10-16T04:07:07;6.35;;;4.65;;
68384;SDS011;55336;43.062;25.626;2022-10-16T04:09:33;7.20;;;4.68;;
68384;SDS011;55336;43.062;25.626;2022-10-16T04:11:59;5.82;;;5.22;;
68384;SDS011;55336;43.062;25.626;2022-10-16T04:14:25;5.60;;;5.10;;
68384;SDS011;55336;43.062;25.626;2022-10-16T04:16:51;5.38;;;5.00;;
68384;SDS011;55336;43.062;25.626;2022-10-16T04:19:17;5.45;;;5.00;;
68384;SDS011;55336;43.062;25.626;2022-10-16T04:21:42;5.15;;;4.75;;
68384;SDS011;55336;43.062;25.626;2022-10-16T04:24:08;7.25;;;4.32;;
68384;SDS011;55336;43.062;25.626;2022-10-16T04:26:36;4.97;;;4.55;;
68384;SDS011;55336;43.062;25.626;2022-10-16T04:29:02;5.05;;;4.60;;
68384;SDS011;55336;43.062;25.626;2022-10-16T04:31:28;4.30;;;4.00;;
68384;SDS011;55336;43.062;25.626;2022-10-16T04:33:54;5.78;;;5.32;;
68384;SDS011;55336;43.062;25.626;2022-10-16T04:36:20;5.35;;;4.78;;
68384;SDS011;55336;43.062;25.626;2022-10-16T04:38:46;5.35;;;4.95;;
68384;SDS011;55336;43.062;25.626;2022-10-16T04:41:12;5.82;;;5.00;;
68384;SDS011;55336;43.062;25.626;2022-10-16T04:43:39;5.32;;;4.93;;
68384;SDS011;55336;43.062;25.626;2022-10-16T04:46:06;5.00;;;4.63;;
68384;SDS011;55336;43.062;25.626;2022-10-16T04:48:32;6.85;;;5.45;;
68384;SDS011;55336;43.062;25.626;2022-10-16T04:50:58;4.65;;;4.32;;
68384;SDS011;55336;43.062;25.626;2022-10-16T04:53:25;5.20;;;4.80;;
68384;SDS011;55336;43.062;25.626;2022-10-16T04:55:51;7.53;;;5.82;;
68384;SDS011;55336;43.062;25.626;2022-10-16T04:58:17;6.25;;;5.75;;
68384;SDS011;55336;43.062;25.626;2022-10-16T05:00:43;5.93;;;5.07;;
68384;SDS011;55336;43.062;25.626;2022-10-16T05:03:11;5.65;;;5.07;;
68384;SDS011;55336;43.062;25.626;2022-10-16T05:05:41;8.10;;;4.18;;
68384;SDS011;55336;43.062;25.626;2022-10-16T05:08:09;12.27;;;4.95;;
68384;SDS011;55336;43.062;25.626;2022-10-16T05:10:35;5.05;;;4.72;;
68384;SDS011;55336;43.062;25.626;2022-10-16T05:13:01;5.57;;;5.18;;
68384;SDS011;55336;43.062;25.626;2022-10-16T05:15:27;5.75;;;5.10;;
68384;SDS011;55336;43.062;25.626;2022-10-16T05:17:54;5.63;;;5.18;;
68384;SDS011;55336;43.062;25.626;2022-10-16T05:20:20;6.90;;;6.22;;
68384;SDS011;55336;43.062;25.626;2022-10-16T05:22:46;6.57;;;5.97;;
68384;SDS011;55336;43.062;25.626;2022-10-16T05:25:13;6.68;;;5.95;;
68384;SDS011;55336;43.062;25.626;2022-10-16T05:27:38;6.97;;;6.45;;
68384;SDS011;55336;43.062;25.626;2022-10-16T05:30:04;7.68;;;5.55;;
68384;SDS011;55336;43.062;25.626;2022-10-16T05:32:31;6.93;;;5.78;;
68384;SDS011;55336;43.062;25.626;2022-10-16T05:34:57;7.43;;;6.72;;
68384;SDS011;55336;43.062;25.626;2022-10-16T05:37:25;6.78;;;6.18;;
68384;SDS011;55336;43.062;25.626;2022-10-16T05:39:52;6.40;;;5.80;;
68384;SDS011;55336;43.062;25.626;2022-10-16T05:42:19;6.57;;;6.07;;
68384;SDS011;55336;43.062;25.626;2022-10-16T05:44:46;7.22;;;6.53;;
68384;SDS011;55336;43.062;25.626;2022-10-16T05:47:12;7.90;;;7.10;;
68384;SDS011;55336;43.062;25.626;2022-10-16T05:49:39;7.60;;;6.90;;
68384;SDS011;55336;43.062;25.626;2022-10-16T05:52:05;7.60;;;6.07;;
68384;SDS011;55336;43.062;25.626;2022-10-16T05:54:31;7.55;;;6.95;;
68384;SDS011;55336;43.062;25.626;2022-10-16T05:56:57;13.30;;;7.93;;
68384;SDS011;55336;43.062;25.626;2022-10-16T06:01:49;7.30;;;6.05;;
68384;SDS011;55336;43.062;25.626;2022-10-16T06:04:15;8.90;;;6.53;;
68384;SDS011;55336;43.062;25.626;2022-10-16T06:09:07;7.03;;;6.18;;
68384;SDS011;55336;43.062;25.626;2022-10-16T06:11:34;8.20;;;6.60;;
68384;SDS011;55336;43.062;25.626;2022-10-16T06:14:02;6.28;;;5.78;;
68384;SDS011;55336;43.062;25.626;2022-10-16T06:16:31;10.43;;;6.63;;
68384;SDS011;55336;43.062;25.626;2022-10-16T06:18:59;6.78;;;6.18;;
68384;SDS011;55336;43.062;25.626;2022-10-16T06:21:26;6.20;;;5.70;;
68384;SDS011;55336;43.062;25.626;2022-10-16T06:23:53;6.68;;;6.07;;
68384;SDS011;55336;43.062;25.626;2022-10-16T06:26:21;7.22;;;6.20;;
68384;SDS011;55336;43.062;25.626;2022-10-16T06:28:48;7.30;;;6.25;;
68384;SDS011;55336;43.062;25.626;2022-10-16T06:31:15;8.35;;;6.95;;
68384;SDS011;55336;43.062;25.626;2022-10-16T06:33:42;6.57;;;6.03;;
68384;SDS011;55336;43.062;25.626;2022-10-16T06:36:09;7.35;;;6.50;;
68384;SDS011;55336;43.062;25.626;2022-10-16T06:38:37;6.38;;;5.78;;
68384;SDS011;55336;43.062;25.626;2022-10-16T06:41:04;6.30;;;5.70;;
68384;SDS011;55336;43.062;25.626;2022-10-16T06:43:31;11.90;;;6.53;;
68384;SDS011;55336;43.062;25.626;2022-10-16T06:46:00;6.82;;;6.13;;
68384;SDS011;55336;43.062;25.626;2022-10-16T06:48:27;7.60;;;6.03;;
68384;SDS011;55336;43.062;25.626;2022-10-16T06:51:02;7.53;;;5.90;;
68384;SDS011;55336;43.062;25.626;2022-10-16T06:53:30;6.65;;;5.55;;
68384;SDS011;55336;43.062;25.626;2022-10-16T06:55:57;6.22;;;5.22;;
68384;SDS011;55336;43.062;25.626;2022-10-16T06:58:23;5.68;;;5.25;;
68384;SDS011;55336;43.062;25.626;2022-10-16T07:00:54;6.45;;;5.22;;
68384;SDS011;55336;43.062;25.626;2022-10-16T07:03:21;5.25;;;4.82;;
68384;SDS011;55336;43.062;25.626;2022-10-16T07:08:13;4.78;;;4.28;;
68384;SDS011;55336;43.062;25.626;2022-10-16T07:13:05;3.97;;;3.63;;
68384;SDS011;55336;43.062;25.626;2022-10-16T07:15:32;6.55;;;4.45;;
68384;SDS011;55336;43.062;25.626;2022-10-16T07:17:59;3.50;;;3.30;;
68384;SDS011;55336;43.062;25.626;2022-10-16T07:20:25;4.40;;;4.05;;
68384;SDS011;55336;43.062;25.626;2022-10-16T07:25:17;4.18;;;3.70;;
68384;SDS011;55336;43.062;25.626;2022-10-16T07:27:43;5.80;;;3.30;;
68384;SDS011;55336;43.062;25.626;2022-10-16T07:30:09;3.40;;;3.10;;
68384;SDS011;55336;43.062;25.626;2022-10-16T07:32:35;4.65;;;3.67;;
68384;SDS011;55336;43.062;25.626;2022-10-16T07:35:01;11.95;;;3.53;;
68384;SDS011;55336;43.062;25.626;2022-10-16T07:39:53;4.05;;;3.15;;
68384;SDS011;55336;43.062;25.626;2022-10-16T07:42:19;7.05;;;3.80;;
68384;SDS011;55336;43.062;25.626;2022-10-16T07:44:45;2.83;;;2.63;;
68384;SDS011;55336;43.062;25.626;2022-10-16T07:47:11;3.28;;;2.97;;
68384;SDS011;55336;43.062;25.626;2022-10-16T07:49:37;7.70;;;2.53;;
68384;SDS011;55336;43.062;25.626;2022-10-16T07:52:03;2.20;;;2.10;;
68384;SDS011;55336;43.062;25.626;2022-10-16T07:56:55;2.17;;;1.98;;
68384;SDS011;55336;43.062;25.626;2022-10-16T08:01:46;4.10;;;2.92;;
68384;SDS011;55336;43.062;25.626;2022-10-16T08:04:13;2.58;;;2.38;;
68384;SDS011;55336;43.062;25.626;2022-10-16T08:06:40;2.45;;;2.25;;
68384;SDS011;55336;43.062;25.626;2022-10-16T08:09:06;2.70;;;2.50;;
68384;SDS011;55336;43.062;25.626;2022-10-16T08:11:33;2.90;;;2.70;;
68384;SDS011;55336;43.062;25.626;2022-10-16T08:14:00;2.80;;;2.60;;
68384;SDS011;55336;43.062;25.626;2022-10-16T08:16:26;2.78;;;2.58;;
68384;SDS011;55336;43.062;25.626;2022-10-16T08:18:52;2.97;;;2.58;;
68384;SDS011;55336;43.062;25.626;2022-10-16T08:21:20;5.43;;;2.65;;
68384;SDS011;55336;43.062;25.626;2022-10-16T08:23:48;2.75;;;2.55;;
68384;SDS011;55336;43.062;25.626;2022-10-16T08:26:15;2.72;;;2.53;;
68384;SDS011;55336;43.062;25.626;2022-10-16T08:28:41;2.33;;;2.20;;
68384;SDS011;55336;43.062;25.626;2022-10-16T08:31:08;2.35;;;2.15;;
68384;SDS011;55336;43.062;25.626;2022-10-16T08:33:37;2.22;;;2.03;;
68384;SDS011;55336;43.062;25.626;2022-10-16T08:36:05;2.80;;;2.60;;
68384;SDS011;55336;43.062;25.626;2022-10-16T08:38:31;7.70;;;3.10;;
68384;SDS011;55336;43.062;25.626;2022-10-16T08:50:02;2.35;;;2.20;;
68384;SDS011;55336;43.062;25.626;2022-10-16T08:52:35;3.05;;;2.28;;
68384;SDS011;55336;43.062;25.626;2022-10-16T08:55:05;2.28;;;2.10;;
68384;SDS011;55336;43.062;25.626;2022-10-16T08:57:31;3.70;;;2.80;;
68384;SDS011;55336;43.062;25.626;2022-10-16T08:59:59;2.40;;;2.20;;
68384;SDS011;55336;43.062;25.626;2022-10-16T09:02:35;2.10;;;1.90;;
68384;SDS011;55336;43.062;25.626;2022-10-16T09:05:32;2.35;;;2.15;;
68384;SDS011;55336;43.062;25.626;2022-10-16T09:13:58;2.38;;;2.22;;
68384;SDS011;55336;43.062;25.626;2022-10-16T09:16:41;1.80;;;1.70;;
68384;SDS011;55336;43.062;25.626;2022-10-16T09:19:20;1.73;;;1.63;;
68384;SDS011;55336;43.062;25.626;2022-10-16T09:21:57;2.53;;;2.28;;
68384;SDS011;55336;43.062;25.626;2022-10-16T09:24:26;1.67;;;1.58;;
68384;SDS011;55336;43.062;25.626;2022-10-16T09:26:52;2.88;;;2.13;;
68384;SDS011;55336;43.062;25.626;2022-10-16T09:31:48;1.95;;;1.75;;
68384;SDS011;55336;43.062;25.626;2022-10-16T09:36:59;2.03;;;1.83;;
68384;SDS011;55336;43.062;25.626;2022-10-16T09:39:26;3.13;;;2.10;;
68384;SDS011;55336;43.062;25.626;2022-10-16T09:44:28;1.60;;;1.50;;
68384;SDS011;55336;43.062;25.626;2022-10-16T09:47:04;2.40;;;1.73;;
68384;SDS011;55336;43.062;25.626;2022-10-16T09:49:37;1.48;;;1.45;;
68384;SDS011;55336;43.062;25.626;2022-10-16T09:52:14;1.42;;;1.33;;
68384;SDS011;55336;43.062;25.626;2022-10-16T09:57:15;2.95;;;2.03;;
68384;SDS011;55336;43.062;25.626;2022-10-16T09:59:54;1.52;;;1.25;;
68384;SDS011;55336;43.062;25.626;2022-10-16T10:02:30;2.10;;;2.00;;
68384;SDS011;55336;43.062;25.626;2022-10-16T10:05:01;1.75;;;1.30;;
68384;SDS011;55336;43.062;25.626;2022-10-16T10:07:30;3.25;;;2.28;;
68384;SDS011;55336;43.062;25.626;2022-10-16T10:09:59;1.92;;;1.83;;
68384;SDS011;55336;43.062;25.626;2022-10-16T10:12:27;6.72;;;2.58;;
68384;SDS011;55336;43.062;25.626;2022-10-16T10:14:58;1.80;;;1.60;;
68384;SDS011;55336;43.062;25.626;2022-10-16T10:17:31;1.73;;;1.60;;
68384;SDS011;55336;43.062;25.626;2022-10-16T10:22:39;1.73;;;1.63;;
68384;SDS011;55336;43.062;25.626;2022-10-16T10:33:49;1.80;;;1.70;;
68384;SDS011;55336;43.062;25.626;2022-10-16T10:36:39;2.00;;;1.73;;
68384;SDS011;55336;43.062;25.626;2022-10-16T10:44:55;1.85;;;1.75;;
68384;SDS011;55336;43.062;25.626;2022-10-16T10:50:06;2.55;;;2.05;;
68384;SDS011;55336;43.062;25.626;2022-10-16T10:52:57;1.80;;;1.58;;
68384;SDS011;55336;43.062;25.626;2022-10-16T11:01:16;1.83;;;1.73;;
68384;SDS011;55336;43.062;25.626;2022-10-16T11:07:38;2.03;;;1.92;;
68384;SDS011;55336;43.062;25.626;2022-10-16T11:09:51;1.65;;;1.55;;
68384;SDS011;55336;43.062;25.626;2022-10-16T11:12:35;2.50;;;2.30;;
68384;SDS011;55336;43.062;25.626;2022-10-16T11:15:13;1.55;;;1.45;;
68384;SDS011;55336;43.062;25.626;2022-10-16T11:20:42;1.60;;;1.50;;
68384;SDS011;55336;43.062;25.626;2022-10-16T11:23:29;1.85;;;1.75;;
68384;SDS011;55336;43.062;25.626;2022-10-16T11:26:21;2.58;;;2.38;;
68384;SDS011;55336;43.062;25.626;2022-10-16T11:28:55;2.63;;;2.03;;
68384;SDS011;55336;43.062;25.626;2022-10-16T11:31:36;4.30;;;2.58;;
68384;SDS011;55336;43.062;25.626;2022-10-16T11:34:15;3.58;;;2.45;;
68384;SDS011;55336;43.062;25.626;2022-10-16T11:36:55;2.53;;;2.00;;
68384;SDS011;55336;43.062;25.626;2022-10-16T11:39:30;3.85;;;2.65;;
68384;SDS011;55336;43.062;25.626;2022-10-16T11:42:07;1.77;;;1.67;;
68384;SDS011;55336;43.062;25.626;2022-10-16T11:45:11;1.95;;;1.85;;
68384;SDS011;55336;43.062;25.626;2022-10-16T11:50:53;2.30;;;2.15;;
68384;SDS011;55336;43.062;25.626;2022-10-16T11:55:54;2.22;;;2.00;;
68384;SDS011;55336;43.062;25.626;2022-10-16T12:03:40;1.65;;;1.48;;
68384;SDS011;55336;43.062;25.626;2022-10-16T12:06:15;2.72;;;2.50;;
68384;SDS011;55336;43.062;25.626;2022-10-16T12:08:53;2.42;;;1.60;;
68384;SDS011;55336;43.062;25.626;2022-10-16T12:16:56;2.83;;;2.17;;
68384;SDS011;55336;43.062;25.626;2022-10-16T12:19:27;3.30;;;1.88;;
68384;SDS011;55336;43.062;25.626;2022-10-16T12:21:58;2.55;;;1.70;;
68384;SDS011;55336;43.062;25.626;2022-10-16T12:26:53;1.48;;;1.38;;
68384;SDS011;55336;43.062;25.626;2022-10-16T12:31:59;2.45;;;1.83;;
68384;SDS011;55336;43.062;25.626;2022-10-16T12:34:27;1.70;;;1.60;;
68384;SDS011;55336;43.062;25.626;2022-10-16T12:37:09;9.57;;;1.98;;
68384;SDS011;55336;43.062;25.626;2022-10-16T12:39:56;2.05;;;1.88;;
68384;SDS011;55336;43.062;25.626;2022-10-16T12:44:52;1.70;;;1.60;;
68384;SDS011;55336;43.062;25.626;2022-10-16T12:47:23;1.77;;;1.67;;
68384;SDS011;55336;43.062;25.626;2022-10-16T12:49:55;1.83;;;1.73;;
68384;SDS011;55336;43.062;25.626;2022-10-16T12:52:39;1.75;;;1.65;;
68384;SDS011;55336;43.062;25.626;2022-10-16T12:55:09;4.88;;;1.80;;
68384;SDS011;55336;43.062;25.626;2022-10-16T12:57:50;3.00;;;1.38;;
68384;SDS011;55336;43.062;25.626;2022-10-16T13:11:48;1.83;;;1.73;;
68384;SDS011;55336;43.062;25.626;2022-10-16T13:14:44;2.50;;;2.20;;
68384;SDS011;55336;43.062;25.626;2022-10-16T13:20:15;1.65;;;1.55;;
68384;SDS011;55336;43.062;25.626;2022-10-16T13:23:13;1.58;;;1.48;;
68384;SDS011;55336;43.062;25.626;2022-10-16T13:28:29;1.30;;;1.20;;
68384;SDS011;55336;43.062;25.626;2022-10-16T13:30:59;6.35;;;1.77;;
68384;SDS011;55336;43.062;25.626;2022-10-16T13:33:42;1.83;;;1.73;;
68384;SDS011;55336;43.062;25.626;2022-10-16T13:36:25;1.88;;;1.70;;
68384;SDS011;55336;43.062;25.626;2022-10-16T13:41:39;2.08;;;1.80;;
68384;SDS011;55336;43.062;25.626;2022-10-16T13:44:09;1.73;;;1.50;;
68384;SDS011;55336;43.062;25.626;2022-10-16T13:46:40;1.70;;;1.60;;
68384;SDS011;55336;43.062;25.626;2022-10-16T13:51:58;5.13;;;1.45;;
68384;SDS011;55336;43.062;25.626;2022-10-16T13:54:25;1.33;;;1.23;;
68384;SDS011;55336;43.062;25.626;2022-10-16T13:56:54;1.80;;;1.63;;
68384;SDS011;55336;43.062;25.626;2022-10-16T14:01:57;1.88;;;1.77;;
68384;SDS011;55336;43.062;25.626;2022-10-16T14:04:25;1.65;;;1.55;;
68384;SDS011;55336;43.062;25.626;2022-10-16T14:06:56;2.08;;;1.92;;
68384;SDS011;55336;43.062;25.626;2022-10-16T14:09:23;1.30;;;1.20;;
68384;SDS011;55336;43.062;25.626;2022-10-16T14:12:03;1.60;;;1.50;;
68384;SDS011;55336;43.062;25.626;2022-10-16T14:14:38;1.48;;;1.33;;
68384;SDS011;55336;43.062;25.626;2022-10-16T14:17:13;9.30;;;1.60;;
68384;SDS011;55336;43.062;25.626;2022-10-16T14:19:49;2.85;;;2.03;;
68384;SDS011;55336;43.062;25.626;2022-10-16T14:22:37;2.40;;;2.20;;
68384;SDS011;55336;43.062;25.626;2022-10-16T14:27:59;5.40;;;1.75;;
68384;SDS011;55336;43.062;25.626;2022-10-16T14:30:29;2.25;;;1.70;;
68384;SDS011;55336;43.062;25.626;2022-10-16T14:32:59;1.58;;;1.48;;
68384;SDS011;55336;43.062;25.626;2022-10-16T14:35:28;2.22;;;1.88;;
68384;SDS011;55336;43.062;25.626;2022-10-16T14:38:02;1.42;;;1.33;;
68384;SDS011;55336;43.062;25.626;2022-10-16T14:40:30;1.73;;;1.50;;
68384;SDS011;55336;43.062;25.626;2022-10-16T14:42:58;1.50;;;1.40;;
68384;SDS011;55336;43.062;25.626;2022-10-16T14:45:30;8.05;;;2.00;;
68384;SDS011;55336;43.062;25.626;2022-10-16T14:47:59;2.20;;;1.98;;
68384;SDS011;55336;43.062;25.626;2022-10-16T14:50:28;2.20;;;1.90;;
68384;SDS011;55336;43.062;25.626;2022-10-16T14:55:20;1.85;;;1.50;;
68384;SDS011;55336;43.062;25.626;2022-10-16T14:57:46;1.73;;;1.58;;
68384;SDS011;55336;43.062;25.626;2022-10-16T15:00:20;1.92;;;1.83;;
68384;SDS011;55336;43.062;25.626;2022-10-16T15:02:48;4.55;;;2.42;;
68384;SDS011;55336;43.062;25.626;2022-10-16T15:05:17;2.47;;;2.05;;
68384;SDS011;55336;43.062;25.626;2022-10-16T15:07:51;1.77;;;1.65;;
68384;SDS011;55336;43.062;25.626;2022-10-16T15:10:19;2.10;;;2.00;;
68384;SDS011;55336;43.062;25.626;2022-10-16T15:12:46;3.45;;;2.33;;
68384;SDS011;55336;43.062;25.626;2022-10-16T15:17:45;2.55;;;2.03;;
68384;SDS011;55336;43.062;25.626;2022-10-16T15:20:11;2.30;;;1.75;;
68384;SDS011;55336;43.062;25.626;2022-10-16T15:22:37;1.80;;;1.70;;
68384;SDS011;55336;43.062;25.626;2022-10-16T15:25:08;1.30;;;1.25;;
68384;SDS011;55336;43.062;25.626;2022-10-16T15:27:47;1.73;;;1.50;;
68384;SDS011;55336;43.062;25.626;2022-10-16T15:30:13;2.40;;;2.08;;
68384;SDS011;55336;43.062;25.626;2022-10-16T15:32:39;4.75;;;3.55;;
68384;SDS011;55336;43.062;25.626;2022-10-16T15:35:08;2.50;;;2.30;;
68384;SDS011;55336;43.062;25.626;2022-10-16T15:37:34;2.30;;;2.10;;
68384;SDS011;55336;43.062;25.626;2022-10-16T15:40:00;1.92;;;1.83;;
68384;SDS011;55336;43.062;25.626;2022-10-16T15:44:52;1.88;;;1.77;;
68384;SDS011;55336;43.062;25.626;2022-10-16T15:49:43;2.08;;;1.92;;
68384;SDS011;55336;43.062;25.626;2022-10-16T15:52:11;1.98;;;1.88;;
68384;SDS011;55336;43.062;25.626;2022-10-16T15:54:37;2.30;;;2.20;;
68384;SDS011;55336;43.062;25.626;2022-10-16T15:57:03;2.25;;;2.15;;
68384;SDS011;55336;43.062;25.626;2022-10-16T15:59:29;2.17;;;2.00;;
68384;SDS011;55336;43.062;25.626;2022-10-16T16:04:21;3.03;;;2.83;;
68384;SDS011;55336;43.062;25.626;2022-10-16T16:09:13;2.67;;;2.47;;
68384;SDS011;55336;43.062;25.626;2022-10-16T16:11:39;2.92;;;2.72;;
68384;SDS011;55336;43.062;25.626;2022-10-16T16:14:06;2.97;;;2.78;;
68384;SDS011;55336;43.062;25.626;2022-10-16T16:16:32;2.90;;;2.67;;
68384;SDS011;55336;43.062;25.626;2022-10-16T16:19:03;4.25;;;3.65;;
68384;SDS011;55336;43.062;25.626;2022-10-16T16:21:31;2.63;;;2.42;;
68384;SDS011;55336;43.062;25.626;2022-10-16T16:23:58;3.22;;;2.92;;
68384;SDS011;55336;43.062;25.626;2022-10-16T16:28:57;2.83;;;2.63;;
68384;SDS011;55336;43.062;25.626;2022-10-16T16:33:50;3.65;;;2.65;;
68384;SDS011;55336;43.062;25.626;2022-10-16T16:36:16;4.85;;;2.20;;
68384;SDS011;55336;43.062;25.626;2022-10-16T16:38:43;2.25;;;2.05;;
68384;SDS011;55336;43.062;25.626;2022-10-16T16:43:46;5.25;;;2.90;;
68384;SDS011;55336;43.062;25.626;2022-10-16T16:46:13;2.50;;;2.30;;
68384;SDS011;55336;43.062;25.626;2022-10-16T16:48:40;2.38;;;2.28;;
68384;SDS011;55336;43.062;25.626;2022-10-16T16:51:10;2.75;;;2.55;;
68384;SDS011;55336;43.062;25.626;2022-10-16T16:53:40;3.10;;;2.90;;
68384;SDS011;55336;43.062;25.626;2022-10-16T16:56:07;2.00;;;1.90;;
68384;SDS011;55336;43.062;25.626;2022-10-16T17:00:59;2.85;;;2.65;;
68384;SDS011;55336;43.062;25.626;2022-10-16T17:03:33;2.60;;;2.40;;
68384;SDS011;55336;43.062;25.626;2022-10-16T17:06:01;2.80;;;2.55;;
68384;SDS011;55336;43.062;25.626;2022-10-16T17:08:29;2.80;;;2.60;;
68384;SDS011;55336;43.062;25.626;2022-10-16T17:13:25;3.25;;;3.05;;
68384;SDS011;55336;43.062;25.626;2022-10-16T17:15:53;2.63;;;2.42;;
68384;SDS011;55336;43.062;25.626;2022-10-16T17:18:20;3.50;;;3.20;;
68384;SDS011;55336;43.062;25.626;2022-10-16T17:20:47;2.40;;;2.20;;
68384;SDS011;55336;43.062;25.626;2022-10-16T17:23:15;2.50;;;2.40;;
68384;SDS011;55336;43.062;25.626;2022-10-16T17:25:42;4.03;;;3.08;;
68384;SDS011;55336;43.062;25.626;2022-10-16T17:30:36;2.42;;;2.33;;
68384;SDS011;55336;43.062;25.626;2022-10-16T17:33:03;3.42;;;2.20;;
68384;SDS011;55336;43.062;25.626;2022-10-16T17:35:35;3.03;;;2.53;;
68384;SDS011;55336;43.062;25.626;2022-10-16T17:38:08;4.75;;;3.05;;
68384;SDS011;55336;43.062;25.626;2022-10-16T17:40:36;2.20;;;2.10;;
68384;SDS011;55336;43.062;25.626;2022-10-16T17:43:03;5.28;;;3.00;;
68384;SDS011;55336;43.062;25.626;2022-10-16T17:45:29;2.83;;;2.63;;
68384;SDS011;55336;43.062;25.626;2022-10-16T17:47:57;4.78;;;3.30;;
68384;SDS011;55336;43.062;25.626;2022-10-16T17:50:23;2.60;;;2.40;;